Terminal Aerodrome Forecast
Issued by NWS St Louis, MO

Home | Current Version | Previous Version | Text Only | Print | Product List | Glossary On
Versions: 1 2 3 4 5 6 7 8 9 10 11 12 13 14 15 16 17 18 19 20 21 22 23 24
000
FTUS43 KLSX 010500
TAFCOU
TAF
KCOU 010520Z 0106/0206 17010KT P6SM BKN250
     FM010800 18011KT 5SM -SHRA BKN040
      TEMPO 0108/0110 VRB15G30KT 2SM +TSRA OVC020CB
     FM011200 18012KT P6SM BKN020
     FM012100 22013KT P6SM VCTS BKN040CB
     FM020000 20007KT P6SM VCTS BKN050CB=

USA.gov is the U.S. government's official web portal to all federal, state and local government web resources and services.